This is the latest recevied weather packets stored in our database for station/object DD6UBW. If no packets are shown the sender has not sent any weather packets the latest 10 day(s).
| Time | Temp. | Humidity | Pressure | Rain* | Wind** | Luminosity | Snow |
|---|---|---|---|---|---|---|---|
| 1777536001 | 13.89° C | 41% | 1031.6 hPa | 0 mm | - | - | - |
| 1777534202 | 12.22° C | 46% | 1031.6 hPa | 0 mm | - | - | - |
| 1777532402 | 11.11° C | 50% | 1031.6 hPa | 0 mm | - | - | - |
| 1777530601 | 10° C | 57% | 1031.6 hPa | 0 mm | - | - | - |
| 1777528802 | 8.89° C | 60% | 1031.6 hPa | 0 mm | - | - | - |
| 1777527002 | 6.67° C | 68% | 1031.6 hPa | 0 mm | - | - | - |
| 1777525201 | 6.11° C | 75% | 1031.6 hPa | 0 mm | - | - | - |
| 1777523401 | 1.67° C | 80% | 1031.6 hPa | 0 mm | - | - | - |
| 1777521601 | 1.67° C | 80% | 1031.6 hPa | 0 mm | - | - | - |
| 1777519801 | 1.67° C | 80% | 1031.6 hPa | 0 mm | - | - | - |
| 1777518001 | 1.67° C | 79% | 1030.6 hPa | 0 mm | - | - | - |
| 1777516201 | 1.67° C | 78% | 1030.6 hPa | 0 mm | - | - | - |
| 1777514401 | 2.22° C | 75% | 1030.6 hPa | 0 mm | - | - | - |
| 1777512601 | 2.22° C | 72% | 1030.6 hPa | 0 mm | - | - | - |
| 1777510801 | 2.78° C | 69% | 1030.6 hPa | 0 mm | - | - | - |
| 1777509003 | 3.33° C | 70% | 1030.6 hPa | 0 mm | - | - | - |
| 1777505402 | 3.33° C | 72% | 1030.6 hPa | 0 mm | - | - | - |
| 1777503602 | 3.89° C | 69% | 1030.6 hPa | 0 mm | - | - | - |
| 1777501801 | 4.44° C | 67% | 1030.6 hPa | 0 mm | - | - | - |
| 1777500001 | 5° C | 65% | 1030.6 hPa | 0 mm | - | - | - |
| 1777498201 | 5° C | 66% | 1030.6 hPa | 0 mm | - | - | - |
| 1777496401 | 5.56° C | 62% | 1030.6 hPa | 0 mm | - | - | - |
| 1777494601 | 6.11° C | 60% | 1030.6 hPa | 0 mm | - | - | - |
| 1777492802 | 7.22° C | 56% | 1029.6 hPa | 0 mm | - | - | - |
| 1777491002 | 7.78° C | 53% | 1029.6 hPa | 0 mm | - | - | - |
* Rain since midnight (hover to see other rain measurements)
** Current wind speed in m/s (hover to see current wind gust speed)